Fairfield, TX (75840)

9:17 AM CDT on September 03, 2015 (GMT -0500)
Sam's Restaurant | | Change Station
CLOSE
Current Station
Personal Weather Station
Location: Fairfield, TX
Elevation: 474 ft
Nearby Weather Stations

Elev 474 ft 31.73 °N, 96.15 °W | Updated 1 second ago

Overcast
Overcast
75.2 °F
Feels Like 74 °F
N
0.0
Wind Variable Wind from SSE
Gusts 3.0 mph

Today
High -- | Low -- °F
--% Chance of Precip.
Yesterday
High -- | Low -- °F
Precip. -- in
7:01 AM 7:46 PM
Waning Gibbous, 70% visible
Pressure 29.99 in
Visibility 10.0 miles
Clouds Overcast 300 ft
Heat Index 74 °F
Dew Point 72 °F
Humidity 90%
Rainfall 0.00 in
Snow Depth Not available.
UV 1 out of 12
Pollen 8.80 out of 12
Air Quality Not available.
Flu Activity Not available.
METAR KLXY 031355Z AUTO 11008KT 070V140 10SM OVC003 23/22 A2999 RMK AO2 T02330220
Pressure 29.99 in
Visibility 10.0 miles
Clouds Overcast 300 ft
Heat Index 74 °F
Dew Point 72 °F
Humidity 90%
Rainfall 0.00 in
Snow Depth Not available.
UV 1 out of 12
Pollen 8.80 out of 12
Air Quality Not available.
Flu Activity Not available.
METAR KLXY 031355Z AUTO 11008KT 070V140 10SM OVC003 23/22 A2999 RMK AO2 T02330220

10-Day Weather Forecast

×

Almanac

Astronomy

Sep. 03, 2015 Rise Set
Actual Time
Civil Twilight
Nautical Twilight
Astronomical Twilight
Moon
Length of Visible Light
Length of Day
Tomorrow will be .
, % of the Moon is Illuminated

Today's Extremes

State Highs State Lows

Community

WunderPhotos

Upload Photos

1,851,959 photos uploaded!

WunderBlogs® & News

Nearby

Air Quality

  Air Quality AQ Index Pollutant
Not available.

Snow Depth

Station Depth Elevation

Earthquake Activity

City Distance Mag. Time & Date
Minimum magnitude displayed is 2.5.

Coastal Water Temperatures

Place Temperature

Stations

Nearby Weather Stations

Station Location Temp. Windchill Dew Point Humidity Wind Precip. Elev Updated Type